Create Tblcommutelog Verified Points Advance Search
| # | Trip ID | Id Commuter | Trip Date | Trip Num | Current Lat | Current Lng | Delta Distance | Current Time | Activity | Activity Confidence | Current Speed | |
|---|---|---|---|---|---|---|---|---|---|---|---|---|
| 70561 | 251216_759518_16626069_1815 | 759518 | (not set) | (not set) | 38.916874283984 | -77.034465749163 | 5.0623 | 2025-12-16 18:52:30 | on_foot | 100 | 0.76890752545889 | |
| 70562 | 251216_785447_16655759_1800 | 785447 | (not set) | (not set) | 39.249102627149 | -76.690978939788 | 33.4977 | 2025-12-16 18:52:48 | in_vehicle | 100 | 9.1017193129901 | |
| 70563 | 251216_785447_16655759_1800 | 785447 | (not set) | (not set) | 39.252009035073 | -76.690892019826 | 33.6983 | 2025-12-16 18:53:03 | in_vehicle | 100 | 9.7052223126235 | |
| 70564 | 251216_785777_16653968_1758 | 785777 | (not set) | (not set) | 39.314044899353 | -76.562203738059 | 15.2111 | 2025-12-16 18:53:17 | in_vehicle | 100 | 5.9545629297165 | |
| 70565 | 251216_790224_16659215_1702 | 790224 | (not set) | (not set) | 37.716397035921 | -77.448063811287 | 93.8639 | 2025-12-16 18:41:05 | in_vehicle | 100 | 16.106824501328 | |
| 70566 | 260113_785067_16653138_1808 | 785067 | (not set) | (not set) | 38.90087310579 | -77.050376939072 | 0 | 2026-01-13 18:24:11 | still | 33 | -0.44703925898772 | |
| 70567 | 260113_785067_16653138_1808 | 785067 | (not set) | (not set) | 38.90087310579 | -77.050376939072 | 0 | 2026-01-13 18:24:11 | still | 33 | -0.44703925898772 | |
| 70568 | 260113_788422_16659889_1820 | 788422 | (not set) | (not set) | 39.294642107396 | -76.611639467163 | 1.1398 | 2026-01-13 18:25:14 | in_vehicle | 100 | 7.0095755809275 | |
| 70569 | 260113_785447_16655759_1759 | 785447 | (not set) | (not set) | 39.036862010307 | -76.749083777945 | 17.7662 | 2026-01-13 18:26:28 | in_vehicle | 100 | 14.180085295091 | |
| 70570 | 260113_788657_0_1816 | 788657 | (not set) | (not set) | 38.887942378177 | -77.161174275581 | 7.4171 | 2026-01-13 18:27:29 | in_vehicle | 100 | 12.977549688414 | |
| 70571 | 260113_785822_16656269_1826 | 785822 | (not set) | (not set) | 38.987250535562 | -76.948095509282 | 0.2263 | 2026-01-13 18:28:24 | on_foot | 100 | 3.057748531476 | |
| 70572 | 260113_763436_16630288_1756 | 763436 | (not set) | (not set) | 38.9706593 | -76.9341629 | 5.1191 | 2026-01-13 18:17:06 | on_bicycle | 100 | 2.8878736130607 | |
| 70573 | 260113_785447_16655759_1759 | 785447 | (not set) | (not set) | 39.079271465969 | -76.71212657146 | 21.3736 | 2026-01-13 18:30:04 | in_vehicle | 100 | 8.5116274911263 | |
| 70574 | 260113_785447_16655759_1759 | 785447 | (not set) | (not set) | 39.087053352406 | -76.706289372274 | 21.9998 | 2026-01-13 18:31:40 | in_vehicle | 100 | 0.08046706661779 | |
| 70575 | 260113_789127_16657913_1807 | 789127 | (not set) | (not set) | 38.882287 | -77.1123852 | 0.1931 | 2026-01-13 18:29:52 | still | 100 | -0.44703925898772 | |
| 70576 | 260113_785447_16655759_1759 | 785447 | (not set) | (not set) | 39.093797245296 | -76.703318956712 | 22.4929 | 2026-01-13 18:33:47 | in_vehicle | 100 | 9.0927785278103 | |
| 70577 | 260113_785447_16655759_1759 | 785447 | (not set) | (not set) | 39.116852444329 | -76.697369366664 | 24.1158 | 2026-01-13 18:35:20 | in_vehicle | 100 | 15.270861087021 | |
| 70578 | 260113_781475_16653956_1729 | 781475 | (not set) | (not set) | 39.081764766313 | -77.076277932962 | 14.9754 | 2026-01-13 18:36:36 | in_vehicle | 100 | 6.1691417740306 | |
| 70579 | 260113_785447_16655759_1759 | 785447 | (not set) | (not set) | 39.141763365138 | -76.697323415145 | 25.8488 | 2026-01-13 18:38:08 | in_vehicle | 100 | 8.8513773279569 | |
| 70580 | 260113_785447_16655759_1759 | 785447 | (not set) | (not set) | 39.166534410401 | -76.696610839645 | 27.5595 | 2026-01-13 18:39:40 | in_vehicle | 100 | 16.151528427226 |